Tow, TX

3:24 AM CDT on September 16, 2014 (GMT -0500)
Shaw Island | Change Station
CLOSE
Current Station
Personal Weather Station
Location: Bluffton, TX
Elevation: 1020 ft
Nearby Weather Stations

Elev 1020 ft 30.83 °N, 98.42 °W | Updated 1 minute ago

Mostly Cloudy
Mostly Cloudy
76.6 °F
Feels Like 78 °F
N
0.0
Wind Variable Wind from East
Gusts 0.0 mph

Today
High -- | Low -- °F
--% Chance of Precip.
Yesterday
High -- | Low -- °F
Precip. -- in
7:18 AM 7:38 PM
Waning Gibbous, 47% visible
Pressure 30.15 in
Visibility 10.0 miles
Clouds Clear
Heat Index 78 °F
Dew Point 69 °F
Humidity 77%
Rainfall 0.00 in
Snow Depth Not available.
UV 0 out of 12
Pollen 9.80 out of 12
Air Quality Not available.
Flu Activity Not available.
METAR KAQO 160815Z AUTO 05003KT 10SM CLR 24/21 A3015 RMK AO2

More Conditions Fewer Conditions

Pressure 30.15 in
Visibility 10.0 miles
Clouds Clear
Heat Index 78 °F
Dew Point 69 °F
Humidity 77%
Rainfall 0.00 in
Snow Depth Not available.
UV 0 out of 12
Pollen 9.80 out of 12
Air Quality Not available.
Flu Activity Not available.
METAR KAQO 160815Z AUTO 05003KT 10SM CLR 24/21 A3015 RMK AO2

More Conditions Fewer Conditions

Nowcast | as of 3:19 am CDT on September 16, 2014

Through 5 am...isolated showers will move to the east. Spotty rainfall amounts of a few hundredths of an inch can be expected.

×

10-Day Weather Forecast

Almanac

Astronomy

Sep. 16, 2014 Rise Set
Actual Time 7:18 AM CDT 7:38 PM CDT
Civil Twilight 6:54 AM CDT 8:02 PM CDT
Nautical Twilight 6:26 AM CDT 8:30 PM CDT
Astronomical Twilight 5:57 AM CDT 8:59 PM CDT
Moon 12:46 AM CDT 2:46 PM CDT
Length of Visible Light 13h 07m
Length of Day
12h 19m
Tomorrow will be 1m 52s shorter.
Waning Gibbous, 47% of the Moon is Illuminated
Today
Waning Gibbous
Sep 24
New
Oct 1
First Quarter
Oct 8
Full
Oct 15
Last Quarter

Today's Extremes

State Highs State Lows

Community

WunderPhotos

Upload Photos

1,753,712 photos uploaded!

Nearby

Snow Depth

Station Depth Elevation
No new snow has been reported.

Earthquake Activity

City Distance Mag. Time & Date
No recent earthquake activity has been reported nearby.
Minimum magnitude displayed is 2.5.

Coastal Water Temperatures

Place Temperature
No Stations Reporting

Nearby Weather Stations